createdAt,value
2023-03-12T00:02:19.063Z,97599.00
2023-03-12T00:04:48.118Z,97608.00
2023-03-12T00:07:15.790Z,97607.00
2023-03-12T00:09:43.502Z,97606.00
2023-03-12T00:12:11.338Z,97608.00
2023-03-12T00:14:40.093Z,97610.00
2023-03-12T00:17:07.764Z,97615.00
2023-03-12T00:19:35.464Z,97614.00
2023-03-12T00:22:04.956Z,97608.00
2023-03-12T00:24:33.081Z,97612.00
2023-03-12T00:27:03.279Z,97614.00
2023-03-12T00:29:30.918Z,97603.00
2023-03-12T00:31:58.633Z,97623.00
2023-03-12T00:34:26.273Z,97620.00
2023-03-12T00:36:53.916Z,97623.00
2023-03-12T00:39:22.917Z,97628.00
2023-03-12T00:41:50.673Z,97620.00
2023-03-12T00:44:18.337Z,97625.00
2023-03-12T00:46:46.030Z,97620.00
2023-03-12T00:49:13.744Z,97615.00
2023-03-12T00:51:41.427Z,97611.00
2023-03-12T00:54:09.162Z,97615.00
2023-03-12T00:56:38.134Z,97604.00
2023-03-12T00:59:05.797Z,97600.00
2023-03-12T01:01:33.485Z,97606.00
2023-03-12T01:04:01.226Z,97609.00
2023-03-12T01:06:29.064Z,97605.00
2023-03-12T01:08:56.715Z,97603.00
2023-03-12T01:11:24.414Z,97604.00
2023-03-12T01:13:53.586Z,97601.00
2023-03-12T01:16:22.271Z,97614.00
2023-03-12T01:18:49.999Z,97610.00
2023-03-12T01:21:17.645Z,97604.00
2023-03-12T01:23:45.349Z,97609.00
2023-03-12T01:26:13.047Z,97606.00
2023-03-12T01:28:40.754Z,97606.00
2023-03-12T01:31:10.464Z,97617.00
2023-03-12T01:33:38.228Z,97620.00
2023-03-12T01:36:06.934Z,97616.00
2023-03-12T01:38:34.580Z,97617.00
2023-03-12T01:41:02.318Z,97618.00
2023-03-12T01:43:32.105Z,97618.00
2023-03-12T01:46:06.890Z,97613.00
2023-03-12T01:48:40.878Z,97610.00
2023-03-12T01:51:11.555Z,97602.00
2023-03-12T01:53:40.125Z,97597.00
2023-03-12T01:56:08.570Z,97593.00
2023-03-12T01:58:38.965Z,97596.00
2023-03-12T02:01:07.601Z,97592.00
2023-03-12T02:03:38.047Z,97586.00
2023-03-12T02:06:11.113Z,97591.00
2023-03-12T02:08:43.245Z,97599.00
2023-03-12T02:11:11.312Z,97593.00
2023-03-12T02:13:40.154Z,97593.00
2023-03-12T02:16:08.747Z,97597.00
2023-03-12T02:18:37.797Z,97604.00
2023-03-12T02:21:15.090Z,97588.00
2023-03-12T02:23:48.805Z,97598.00
2023-03-12T02:26:20.086Z,97587.00
2023-03-12T02:28:48.927Z,97592.00
2023-03-12T02:31:20.692Z,97586.00
2023-03-12T02:33:48.364Z,97589.00
2023-03-12T02:36:16.102Z,97600.00
2023-03-12T02:38:46.769Z,97591.00
2023-03-12T02:41:21.465Z,97593.00
2023-03-12T02:43:53.019Z,97605.00
2023-03-12T02:46:21.520Z,97606.00
2023-03-12T02:48:49.351Z,97607.00
2023-03-12T02:51:17.061Z,97613.00
2023-03-12T02:53:45.235Z,97615.00
2023-03-12T02:56:12.868Z,97613.00
2023-03-12T02:58:43.210Z,97618.00
2023-03-12T03:01:11.741Z,97621.00
2023-03-12T03:03:39.407Z,97616.00
2023-03-12T03:06:07.210Z,97611.00
2023-03-12T03:08:34.908Z,97614.00
2023-03-12T03:11:03.555Z,97618.00
2023-03-12T03:13:31.363Z,97617.00
2023-03-12T03:16:01.985Z,97622.00
2023-03-12T03:18:30.250Z,97620.00
2023-03-12T03:20:58.664Z,97622.00
2023-03-12T03:23:26.602Z,97620.00
2023-03-12T03:25:54.793Z,97625.00
2023-03-12T03:28:24.452Z,97616.00
2023-03-12T03:30:54.197Z,97618.00
2023-03-12T03:33:23.246Z,97618.00
2023-03-12T03:35:51.425Z,97622.00
2023-03-12T03:38:19.082Z,97617.00
2023-03-12T03:40:46.877Z,97625.00
2023-03-12T03:43:14.526Z,97626.00
2023-03-12T03:45:44.764Z,97630.00
2023-03-12T03:48:12.842Z,97633.00
2023-03-12T03:50:42.639Z,97637.00
2023-03-12T03:53:10.854Z,97633.00
2023-03-12T03:55:39.582Z,97633.00
2023-03-12T03:58:07.799Z,97643.00
2023-03-12T04:00:35.478Z,97639.00
2023-03-12T04:03:03.190Z,97633.00
2023-03-12T04:05:30.932Z,97631.00
2023-03-12T04:08:03.190Z,97630.00
2023-03-12T04:10:31.725Z,97625.00
2023-03-12T04:12:59.390Z,97622.00
2023-03-12T04:15:27.004Z,97626.00
2023-03-12T04:17:54.664Z,97621.00
2023-03-12T04:20:22.315Z,97608.00
2023-03-12T04:22:49.968Z,97614.00
2023-03-12T04:25:19.136Z,97610.00
2023-03-12T04:27:46.818Z,97607.00
2023-03-12T04:30:15.151Z,97604.00
2023-03-12T04:32:43.010Z,97610.00
2023-03-12T04:35:10.697Z,97614.00
2023-03-12T04:37:38.390Z,97617.00
2023-03-12T04:40:08.163Z,97616.00
2023-03-12T04:42:37.891Z,97613.00
2023-03-12T04:45:07.251Z,97605.00
2023-03-12T04:47:35.028Z,97613.00
2023-03-12T04:50:04.679Z,97609.00
2023-03-12T04:52:32.384Z,97612.00
2023-03-12T04:55:00.479Z,97611.00
2023-03-12T04:57:28.320Z,97610.00
2023-03-12T04:59:57.318Z,97619.00
2023-03-12T05:02:25.284Z,97612.00
2023-03-12T05:04:52.943Z,97605.00
2023-03-12T05:07:20.813Z,97614.00
2023-03-12T05:09:48.464Z,97612.00
2023-03-12T05:12:16.107Z,97603.00
2023-03-12T05:14:43.734Z,97608.00
2023-03-12T05:17:12.777Z,97614.00
2023-03-12T05:19:40.427Z,97616.00
2023-03-12T05:22:08.081Z,97606.00
2023-03-12T05:24:36.838Z,97612.00
2023-03-12T05:27:04.591Z,97617.00
2023-03-12T05:29:35.367Z,97611.00
2023-03-12T05:32:03.225Z,97616.00
2023-03-12T05:34:33.071Z,97608.00
2023-03-12T05:37:01.106Z,97614.00
2023-03-12T05:39:28.890Z,97610.00
2023-03-12T05:41:57.315Z,97603.00
2023-03-12T05:44:26.137Z,97604.00
2023-03-12T05:46:55.701Z,97600.00
2023-03-12T05:49:24.264Z,97607.00
2023-03-12T05:51:53.290Z,97607.00
2023-03-12T05:54:21.335Z,97615.00
2023-03-12T05:56:49.021Z,97608.00
2023-03-12T05:59:16.805Z,97619.00
2023-03-12T06:01:44.948Z,97612.00
2023-03-12T06:04:12.694Z,97610.00
2023-03-12T06:06:40.411Z,97624.00
2023-03-12T06:09:09.625Z,97611.00
2023-03-12T06:11:37.398Z,97624.00
2023-03-12T06:14:05.549Z,97616.00
2023-03-12T06:16:33.416Z,97610.00
2023-03-12T06:19:03.027Z,97619.00
2023-03-12T06:21:33.738Z,97621.00
2023-03-12T06:24:02.092Z,97630.00
2023-03-12T06:26:31.377Z,97633.00
2023-03-12T06:28:59.207Z,97636.00
2023-03-12T06:31:26.897Z,97635.00
2023-03-12T06:33:54.756Z,97640.00
2023-03-12T06:36:23.059Z,97636.00
2023-03-12T06:38:50.957Z,97634.00
2023-03-12T06:41:20.376Z,97632.00
2023-03-12T06:43:49.551Z,97638.00
2023-03-12T06:46:19.458Z,97643.00
2023-03-12T06:48:47.460Z,97637.00
2023-03-12T06:51:17.022Z,97637.00
2023-03-12T06:53:45.388Z,97645.00
2023-03-12T06:56:14.117Z,97645.00
2023-03-12T06:58:42.004Z,97650.00
2023-03-12T07:01:11.123Z,97651.00
2023-03-12T07:03:39.031Z,97645.00
2023-03-12T07:06:13.749Z,97642.00
2023-03-12T07:08:41.420Z,97641.00
2023-03-12T07:11:09.144Z,97641.00
2023-03-12T07:13:36.977Z,97630.00
2023-03-12T07:16:05.452Z,97628.00
2023-03-12T07:18:35.157Z,97631.00
2023-03-12T07:21:03.013Z,97633.00
2023-03-12T07:23:30.701Z,97627.00
2023-03-12T07:25:58.390Z,97624.00
2023-03-12T07:28:26.031Z,97615.00
2023-03-12T07:30:53.761Z,97604.00
2023-03-12T07:33:22.783Z,97601.00
2023-03-12T07:35:52.238Z,97609.00
2023-03-12T07:38:20.084Z,97604.00
2023-03-12T07:40:51.714Z,97603.00
2023-03-12T07:43:21.633Z,97598.00
2023-03-12T07:45:49.903Z,97598.00
2023-03-12T07:48:19.792Z,97604.00
2023-03-12T07:50:47.613Z,97606.00
2023-03-12T07:53:16.831Z,97600.00
2023-03-12T07:55:46.146Z,97599.00
2023-03-12T07:58:14.295Z,97597.00
2023-03-12T08:00:42.203Z,97602.00
2023-03-12T08:03:10.273Z,97606.00
2023-03-12T08:05:38.151Z,97612.00
2023-03-12T08:08:05.930Z,97604.00
2023-03-12T08:10:35.072Z,97604.00
2023-03-12T08:15:29.006Z,97613.00
2023-03-12T08:17:56.626Z,97618.00
2023-03-12T08:20:24.306Z,97610.00
2023-03-12T08:22:51.998Z,97608.00
2023-03-12T08:25:21.120Z,97606.00
2023-03-12T08:27:50.198Z,97611.00
2023-03-12T08:30:18.354Z,97619.00
2023-03-12T08:32:46.027Z,97619.00
2023-03-12T08:35:13.735Z,97616.00
2023-03-12T08:37:41.479Z,97617.00
2023-03-12T08:40:13.212Z,97610.00
2023-03-12T08:42:41.043Z,97613.00
2023-03-12T08:45:11.647Z,97609.00
2023-03-12T08:47:41.562Z,97617.00
2023-03-12T08:50:11.284Z,97610.00
2023-03-12T08:52:39.165Z,97613.00
2023-03-12T08:55:07.762Z,97617.00
2023-03-12T08:57:35.521Z,97613.00
2023-03-12T09:00:05.279Z,97608.00
2023-03-12T09:02:34.364Z,97611.00
2023-03-12T09:05:01.995Z,97606.00
2023-03-12T09:07:29.697Z,97607.00
2023-03-12T09:09:57.406Z,97606.00
2023-03-12T09:12:25.600Z,97608.00
2023-03-12T09:15:09.004Z,97611.00
2023-03-12T09:17:38.744Z,97608.00
2023-03-12T09:20:09.388Z,97608.00
2023-03-12T09:22:37.886Z,97603.00
2023-03-12T09:25:06.749Z,97596.00
2023-03-12T09:27:37.221Z,97587.00
2023-03-12T09:30:06.599Z,97579.00
2023-03-12T09:32:34.413Z,97579.00
2023-03-12T09:35:03.430Z,97589.00
2023-03-12T09:37:32.307Z,97592.00
2023-03-12T09:40:00.278Z,97588.00
2023-03-12T09:42:32.863Z,97603.00
2023-03-12T09:45:04.582Z,97593.00
2023-03-12T09:47:34.979Z,97608.00
2023-03-12T09:50:11.943Z,97597.00
2023-03-12T09:52:43.776Z,97597.00
2023-03-12T09:55:15.500Z,97597.00
2023-03-12T09:57:44.336Z,97598.00
2023-03-12T10:00:15.244Z,97596.00
2023-03-12T10:03:01.245Z,97587.00
2023-03-12T10:05:38.835Z,97601.00
2023-03-12T10:08:24.382Z,97593.00
2023-03-12T10:10:57.115Z,97591.00
2023-03-12T10:13:37.203Z,97589.00
2023-03-12T10:16:14.758Z,97581.00
2023-03-12T10:19:04.155Z,97580.00
2023-03-12T10:21:38.577Z,97582.00
2023-03-12T10:24:16.213Z,97590.00
2023-03-12T10:26:46.777Z,97592.00
2023-03-12T10:29:18.328Z,97574.00
2023-03-12T10:31:54.859Z,97573.00
2023-03-12T10:34:29.725Z,97571.00
2023-03-12T10:37:04.141Z,97578.00
2023-03-12T10:39:32.174Z,97570.00
2023-03-12T10:42:02.166Z,97564.00
2023-03-12T10:44:30.701Z,97576.00
2023-03-12T10:47:26.637Z,97574.00
2023-03-12T10:49:54.314Z,97591.00
2023-03-12T10:52:24.581Z,97579.00
2023-03-12T10:54:53.914Z,97585.00
2023-03-12T10:57:22.713Z,97594.00
2023-03-12T10:59:51.337Z,97576.00
2023-03-12T11:02:35.161Z,97586.00
2023-03-12T11:05:19.303Z,97580.00
2023-03-12T11:07:48.386Z,97574.00
2023-03-12T11:10:23.128Z,97588.00
2023-03-12T11:13:03.061Z,97586.00
2023-03-12T11:15:38.777Z,97590.00
2023-03-12T11:18:27.982Z,97583.00
2023-03-12T11:20:57.614Z,97578.00
2023-03-12T11:23:29.417Z,97592.00
2023-03-12T11:26:00.517Z,97583.00
2023-03-12T11:28:36.635Z,97577.00
2023-03-12T11:31:09.259Z,97580.00
2023-03-12T11:33:37.039Z,97570.00
2023-03-12T11:36:15.626Z,97572.00
2023-03-12T11:38:50.712Z,97575.00
2023-03-12T11:41:35.111Z,97583.00
2023-03-12T11:44:18.988Z,97576.00
2023-03-12T11:46:57.689Z,97582.00
2023-03-12T11:49:40.784Z,97582.00
2023-03-12T11:52:18.341Z,97584.00
2023-03-12T11:55:18.598Z,97585.00
2023-03-12T11:57:58.140Z,97579.00
2023-03-12T12:00:33.629Z,97575.00
2023-03-12T12:03:26.665Z,97570.00
2023-03-12T12:06:01.550Z,97569.00
2023-03-12T12:08:39.347Z,97562.00
2023-03-12T12:11:14.842Z,97562.00
2023-03-12T12:13:52.488Z,97560.00
2023-03-12T12:16:34.175Z,97564.00
2023-03-12T12:19:11.964Z,97561.00
2023-03-12T12:21:58.120Z,97558.00
2023-03-12T12:24:43.653Z,97551.00
2023-03-12T12:27:21.256Z,97550.00
2023-03-12T12:30:11.825Z,97545.00
2023-03-12T12:32:58.742Z,97544.00
2023-03-12T12:35:30.941Z,97540.00
2023-03-12T12:38:01.019Z,97533.00
2023-03-12T12:40:33.727Z,97533.00
2023-03-12T12:43:16.440Z,97539.00
2023-03-12T12:45:46.139Z,97535.00
2023-03-12T12:48:18.913Z,97533.00
2023-03-12T12:50:48.747Z,97527.00
2023-03-12T12:53:22.857Z,97532.00
2023-03-12T12:56:00.301Z,97522.00
2023-03-12T12:58:48.794Z,97527.00
2023-03-12T13:01:18.222Z,97532.00
2023-03-12T13:03:47.226Z,97524.00
2023-03-12T13:06:14.957Z,97532.00
2023-03-12T13:09:14.096Z,97522.00
2023-03-12T13:11:46.360Z,97523.00
2023-03-12T13:14:35.238Z,97524.00
2023-03-12T13:17:21.731Z,97511.00
2023-03-12T13:20:00.926Z,97512.00
2023-03-12T13:22:45.931Z,97515.00
2023-03-12T13:25:26.912Z,97505.00
2023-03-12T13:28:00.445Z,97505.00
2023-03-12T13:30:51.532Z,97509.00
2023-03-12T13:33:22.454Z,97514.00
2023-03-12T13:36:06.495Z,97514.00
2023-03-12T13:38:39.737Z,97516.00
2023-03-12T13:41:08.703Z,97514.00
2023-03-12T13:43:54.487Z,97518.00
2023-03-12T13:46:30.512Z,97516.00
2023-03-12T13:49:01.716Z,97519.00
2023-03-12T13:51:29.489Z,97521.00
2023-03-12T13:54:01.229Z,97518.00
2023-03-12T13:56:31.131Z,97514.00
2023-03-12T13:59:02.542Z,97516.00
2023-03-12T14:01:36.555Z,97513.00
2023-03-12T14:04:09.421Z,97518.00
2023-03-12T14:06:54.996Z,97515.00
2023-03-12T14:09:31.734Z,97523.00
2023-03-12T14:12:06.525Z,97512.00
2023-03-12T14:15:04.513Z,97511.00
2023-03-12T14:17:35.520Z,97513.00
2023-03-12T14:20:07.414Z,97510.00
2023-03-12T14:22:37.103Z,97505.00
2023-03-12T14:25:14.023Z,97510.00
2023-03-12T14:27:42.517Z,97504.00
2023-03-12T14:30:17.543Z,97501.00
2023-03-12T14:32:48.799Z,97501.00
2023-03-12T14:35:21.808Z,97492.00
2023-03-12T14:37:55.676Z,97502.00
2023-03-12T14:40:26.800Z,97493.00
2023-03-12T14:42:55.608Z,97490.00
2023-03-12T14:45:24.190Z,97492.00
2023-03-12T14:47:57.320Z,97494.00
2023-03-12T14:50:27.809Z,97504.00
2023-03-12T14:52:57.296Z,97497.00
2023-03-12T14:55:26.884Z,97519.00
2023-03-12T14:58:05.876Z,97509.00
2023-03-12T15:00:34.484Z,97509.00
2023-03-12T15:03:11.920Z,97516.00
2023-03-12T15:05:39.763Z,97510.00
2023-03-12T15:08:08.941Z,97514.00
2023-03-12T15:10:38.561Z,97517.00
2023-03-12T15:13:06.594Z,97519.00
2023-03-12T15:15:39.166Z,97513.00
2023-03-12T15:18:23.929Z,97514.00
2023-03-12T15:20:53.664Z,97514.00
2023-03-12T15:23:25.763Z,97519.00
2023-03-12T15:26:33.086Z,97515.00
2023-03-12T15:29:02.466Z,97512.00
2023-03-12T15:31:45.422Z,97518.00
2023-03-12T15:34:32.900Z,97515.00
2023-03-12T15:37:02.527Z,97504.00
2023-03-12T15:39:34.427Z,97492.00
2023-03-12T15:42:03.974Z,97496.00
2023-03-12T15:44:44.607Z,97495.00
2023-03-12T15:47:18.784Z,97486.00
2023-03-12T15:53:35.355Z,97488.00
2023-03-12T15:56:06.136Z,97481.00
2023-03-12T15:58:36.047Z,97476.00
2023-03-12T16:01:13.467Z,97475.00
2023-03-12T16:03:42.794Z,97483.00
2023-03-12T16:06:13.606Z,97480.00
2023-03-12T16:08:48.732Z,97476.00
2023-03-12T16:11:19.755Z,97490.00
2023-03-12T16:13:50.043Z,97487.00
2023-03-12T16:16:17.992Z,97505.00
2023-03-12T16:18:46.028Z,97497.00
2023-03-12T16:21:14.339Z,97502.00
2023-03-12T16:23:43.703Z,97503.00
2023-03-12T16:26:14.415Z,97503.00
2023-03-12T16:28:43.905Z,97503.00
2023-03-12T16:31:21.202Z,97511.00
2023-03-12T16:33:49.098Z,97514.00
2023-03-12T16:36:19.224Z,97525.00
2023-03-12T16:38:48.276Z,97517.00
2023-03-12T16:41:19.069Z,97510.00
2023-03-12T16:43:51.150Z,97512.00
2023-03-12T16:46:21.682Z,97517.00
2023-03-12T16:48:52.404Z,97513.00
2023-03-12T16:51:20.785Z,97517.00
2023-03-12T16:54:05.294Z,97520.00
2023-03-12T16:56:36.964Z,97522.00
2023-03-12T16:59:07.826Z,97519.00
2023-03-12T17:01:37.106Z,97526.00
2023-03-12T17:04:05.027Z,97524.00
2023-03-12T17:06:32.896Z,97524.00
2023-03-12T17:09:02.325Z,97515.00
2023-03-12T17:11:32.869Z,97514.00
2023-03-12T17:14:02.605Z,97522.00
2023-03-12T17:16:30.765Z,97524.00
2023-03-12T17:18:58.459Z,97520.00
2023-03-12T17:21:26.156Z,97522.00
2023-03-12T17:23:53.808Z,97515.00
2023-03-12T17:26:22.964Z,97519.00
2023-03-12T17:28:50.646Z,97515.00
2023-03-12T17:31:18.430Z,97515.00
2023-03-12T17:33:46.197Z,97501.00
2023-03-12T17:36:14.062Z,97515.00
2023-03-12T17:38:41.763Z,97520.00
2023-03-12T17:41:25.142Z,97525.00
2023-03-12T17:43:55.126Z,97526.00
2023-03-12T17:46:23.167Z,97526.00
2023-03-12T17:48:50.904Z,97528.00
2023-03-12T17:51:18.637Z,97529.00
2023-03-12T17:53:47.196Z,97527.00
2023-03-12T17:56:17.921Z,97531.00
2023-03-12T17:58:45.790Z,97532.00
2023-03-12T18:01:15.577Z,97534.00
2023-03-12T18:03:44.125Z,97536.00
2023-03-12T18:06:12.150Z,97542.00
2023-03-12T18:08:39.927Z,97533.00
2023-03-12T18:11:07.640Z,97538.00
2023-03-12T18:13:35.338Z,97540.00
2023-03-12T18:16:03.282Z,97538.00
2023-03-12T18:18:32.386Z,97538.00
2023-03-12T18:21:00.059Z,97542.00
2023-03-12T18:23:27.846Z,97546.00
2023-03-12T18:25:55.521Z,97542.00
2023-03-12T18:28:24.106Z,97550.00
2023-03-12T18:30:54.385Z,97555.00
2023-03-12T18:33:22.073Z,97564.00
2023-03-12T18:35:53.236Z,97558.00
2023-03-12T18:38:22.078Z,97562.00
2023-03-12T18:40:51.294Z,97563.00
2023-03-12T18:43:20.795Z,97570.00
2023-03-12T18:45:50.981Z,97564.00
2023-03-12T18:48:18.662Z,97564.00
2023-03-12T18:50:46.333Z,97567.00
2023-03-12T18:53:15.369Z,97576.00
2023-03-12T18:55:50.776Z,97572.00
2023-03-12T18:58:18.856Z,97574.00
2023-03-12T19:00:46.842Z,97568.00
2023-03-12T19:03:14.687Z,97575.00
2023-03-12T19:05:42.536Z,97575.00
2023-03-12T19:08:10.311Z,97570.00
2023-03-12T19:10:42.250Z,97572.00
2023-03-12T19:13:10.173Z,97575.00
2023-03-12T19:15:39.344Z,97566.00
2023-03-12T19:18:07.317Z,97567.00
2023-03-12T19:20:36.523Z,97567.00
2023-03-12T19:23:04.240Z,97571.00
2023-03-12T19:25:32.126Z,97577.00
2023-03-12T19:28:01.273Z,97569.00
2023-03-12T19:30:30.700Z,97566.00
2023-03-12T19:32:58.455Z,97573.00
2023-03-12T19:35:26.224Z,97580.00
2023-03-12T19:37:54.112Z,97579.00
2023-03-12T19:40:21.847Z,97575.00
2023-03-12T19:42:49.486Z,97584.00
2023-03-12T19:45:18.706Z,97586.00
2023-03-12T19:47:46.399Z,97578.00
2023-03-12T19:50:14.288Z,97583.00
2023-03-12T19:52:41.982Z,97578.00
2023-03-12T19:55:11.935Z,97570.00
2023-03-12T19:57:40.541Z,97574.00
2023-03-12T20:00:12.424Z,97580.00
2023-03-12T20:02:43.096Z,97573.00
2023-03-12T20:05:11.685Z,97584.00
2023-03-12T20:07:39.717Z,97583.00
2023-03-12T20:10:10.935Z,97587.00
2023-03-12T20:12:39.619Z,97591.00
2023-03-12T20:15:08.378Z,97591.00
2023-03-12T20:17:36.063Z,97589.00
2023-03-12T20:20:06.932Z,97592.00
2023-03-12T20:22:36.284Z,97591.00
2023-03-12T20:25:04.329Z,97602.00
2023-03-12T20:27:34.064Z,97605.00
2023-03-12T20:30:03.555Z,97598.00
2023-03-12T20:32:31.702Z,97588.00
2023-03-12T20:34:59.584Z,97598.00
2023-03-12T20:37:28.720Z,97601.00
2023-03-12T20:39:56.448Z,97612.00
2023-03-12T20:42:24.152Z,97602.00
2023-03-12T20:44:51.827Z,97594.00
2023-03-12T20:47:19.514Z,97599.00
2023-03-12T20:49:47.152Z,97600.00
2023-03-12T20:52:14.841Z,97594.00
2023-03-12T20:54:44.036Z,97598.00
2023-03-12T20:57:11.664Z,97600.00
2023-03-12T20:59:39.307Z,97600.00
2023-03-12T21:02:06.980Z,97611.00
2023-03-12T21:04:34.651Z,97602.00
2023-03-12T21:07:02.280Z,97602.00
2023-03-12T21:09:29.905Z,97598.00
2023-03-12T21:11:58.923Z,97602.00
2023-03-12T21:14:26.850Z,97605.00
2023-03-12T21:16:55.365Z,97611.00
2023-03-12T21:19:26.945Z,97611.00
2023-03-12T21:21:56.915Z,97607.00
2023-03-12T21:24:24.724Z,97605.00
2023-03-12T21:26:52.411Z,97604.00
2023-03-12T21:29:21.485Z,97592.00
2023-03-12T21:31:51.886Z,97594.00
2023-03-12T21:34:19.653Z,97587.00
2023-03-12T21:36:47.520Z,97583.00
2023-03-12T21:39:15.303Z,97593.00
2023-03-12T21:41:43.125Z,97588.00
2023-03-12T21:44:10.819Z,97588.00
2023-03-12T21:46:39.968Z,97586.00
2023-03-12T21:49:08.200Z,97587.00
2023-03-12T21:51:39.108Z,97572.00
2023-03-12T21:54:08.099Z,97577.00
2023-03-12T21:56:35.779Z,97582.00
2023-03-12T21:59:05.566Z,97578.00
2023-03-12T22:01:33.434Z,97572.00
2023-03-12T22:04:03.251Z,97569.00
2023-03-12T22:06:31.355Z,97562.00
2023-03-12T22:08:58.987Z,97566.00
2023-03-12T22:11:26.969Z,97560.00
2023-03-12T22:13:54.572Z,97557.00
2023-03-12T22:16:22.544Z,97565.00
2023-03-12T22:18:50.282Z,97561.00
2023-03-12T22:21:21.866Z,97564.00
2023-03-12T22:23:51.041Z,97553.00
2023-03-12T22:26:19.894Z,97552.00
2023-03-12T22:28:49.342Z,97556.00
2023-03-12T22:31:17.361Z,97552.00
2023-03-12T22:33:45.201Z,97546.00
2023-03-12T22:36:15.259Z,97548.00
2023-03-12T22:38:44.897Z,97547.00
2023-03-12T22:41:17.674Z,97547.00
2023-03-12T22:43:46.237Z,97544.00
2023-03-12T22:46:16.734Z,97548.00
2023-03-12T22:48:44.540Z,97549.00
2023-03-12T22:51:12.820Z,97543.00
2023-03-12T22:53:40.933Z,97536.00
2023-03-12T22:56:12.725Z,97537.00
2023-03-12T22:58:40.743Z,97527.00
2023-03-12T23:01:10.769Z,97527.00
2023-03-12T23:03:40.000Z,97524.00
2023-03-12T23:06:10.815Z,97520.00
2023-03-12T23:08:38.612Z,97520.00
2023-03-12T23:11:07.979Z,97519.00
2023-03-12T23:13:39.172Z,97515.00
2023-03-12T23:16:09.581Z,97514.00
2023-03-12T23:18:39.559Z,97511.00
2023-03-12T23:21:09.475Z,97510.00
2023-03-12T23:23:39.481Z,97517.00
2023-03-12T23:26:07.744Z,97505.00
2023-03-12T23:28:36.737Z,97500.00
2023-03-12T23:31:07.196Z,97499.00
2023-03-12T23:33:35.533Z,97496.00
2023-03-12T23:36:06.308Z,97500.00
2023-03-12T23:38:37.312Z,97487.00
2023-03-12T23:41:07.182Z,97497.00
2023-03-12T23:43:35.050Z,97488.00
2023-03-12T23:46:06.440Z,97478.00
2023-03-12T23:48:35.253Z,97474.00
2023-03-12T23:51:07.368Z,97479.00
2023-03-12T23:53:35.481Z,97483.00
2023-03-12T23:56:04.612Z,97479.00
2023-03-12T23:58:32.389Z,97482.00
